createdAt,value
2022-10-11T00:01:16.434Z,62.56
2022-10-11T00:03:42.821Z,62.79
2022-10-11T00:06:09.621Z,62.29
2022-10-11T00:08:36.148Z,62.67
2022-10-11T00:11:06.490Z,62.61
2022-10-11T00:13:33.224Z,62.94
2022-10-11T00:15:59.923Z,62.51
2022-10-11T00:18:26.600Z,62.22
2022-10-11T00:21:01.987Z,62.07
2022-10-11T00:23:28.348Z,62.98
2022-10-11T00:26:03.442Z,62.31
2022-10-11T00:28:30.721Z,62.79
2022-10-11T00:30:57.289Z,63.52
2022-10-11T00:33:23.808Z,65.09
2022-10-11T00:35:50.395Z,65.40
2022-10-11T00:38:17.771Z,64.48
2022-10-11T00:40:45.239Z,63.93
2022-10-11T00:43:16.987Z,64.08
2022-10-11T00:45:59.691Z,63.48
2022-10-11T00:48:33.077Z,63.99
2022-10-11T00:51:02.868Z,65.40
2022-10-11T00:53:32.224Z,64.75
2022-10-11T00:56:17.043Z,64.53
2022-10-11T00:58:43.942Z,63.73
2022-10-11T01:01:10.615Z,64.30
2022-10-11T01:03:39.742Z,65.71
2022-10-11T01:06:07.210Z,65.24
2022-10-11T01:08:34.137Z,64.12
2022-10-11T01:11:00.940Z,64.57
2022-10-11T01:13:32.955Z,64.05
2022-10-11T01:16:13.494Z,62.85
2022-10-11T01:19:12.386Z,63.83
2022-10-11T01:22:02.409Z,64.33
2022-10-11T01:24:39.325Z,63.08
2022-10-11T01:27:27.319Z,63.80
2022-10-11T01:30:02.925Z,62.43
2022-10-11T01:32:37.299Z,63.03
2022-10-11T01:35:03.801Z,63.36
2022-10-11T01:37:37.567Z,63.49
2022-10-11T01:40:14.003Z,63.81
2022-10-11T01:42:42.705Z,64.10
2022-10-11T01:45:13.922Z,64.53
2022-10-11T01:47:42.382Z,64.18
2022-10-11T01:50:49.036Z,65.17
2022-10-11T01:53:26.868Z,63.36
2022-10-11T01:56:00.523Z,63.89
2022-10-11T01:58:38.022Z,63.72
2022-10-11T02:01:07.573Z,63.76
2022-10-11T02:03:38.089Z,63.36
2022-10-11T02:06:12.276Z,63.59
2022-10-11T02:08:49.916Z,63.87
2022-10-11T02:11:22.704Z,64.27
2022-10-11T02:13:59.193Z,64.70
2022-10-11T02:16:31.712Z,64.88
2022-10-11T02:19:01.258Z,64.78
2022-10-11T02:21:29.614Z,64.94
2022-10-11T02:24:04.371Z,64.88
2022-10-11T02:26:33.518Z,65.12
2022-10-11T02:29:04.287Z,64.39
2022-10-11T02:31:34.385Z,63.46
2022-10-11T02:34:23.015Z,63.95
2022-10-11T02:37:04.073Z,64.01
2022-10-11T02:39:41.885Z,65.05
2022-10-11T02:42:14.822Z,65.16
2022-10-11T02:44:47.094Z,65.36
2022-10-11T02:47:14.518Z,64.93
2022-10-11T02:49:40.931Z,64.14
2022-10-11T02:52:07.464Z,63.76
2022-10-11T02:54:34.103Z,63.73
2022-10-11T02:57:00.412Z,64.59
2022-10-11T02:59:26.715Z,65.23
2022-10-11T03:01:53.118Z,64.61
2022-10-11T03:04:19.545Z,65.98
2022-10-11T03:06:46.084Z,67.02
2022-10-11T03:09:12.418Z,66.32
2022-10-11T03:11:38.770Z,66.90
2022-10-11T03:14:05.389Z,65.95
2022-10-11T03:16:31.807Z,65.35
2022-10-11T03:18:58.127Z,64.76
2022-10-11T03:21:25.165Z,64.70
2022-10-11T03:23:51.490Z,65.31
2022-10-11T03:26:17.822Z,65.55
2022-10-11T03:28:44.282Z,65.04
2022-10-11T03:31:10.906Z,65.53
2022-10-11T03:33:37.258Z,65.93
2022-10-11T03:36:04.166Z,65.39
2022-10-11T03:38:30.727Z,65.79
2022-10-11T03:40:57.052Z,66.02
2022-10-11T03:43:23.399Z,65.21
2022-10-11T03:45:49.758Z,64.55
2022-10-11T03:48:16.095Z,65.33
2022-10-11T03:50:42.444Z,65.22
2022-10-11T03:53:08.970Z,64.84
2022-10-11T03:55:37.389Z,64.79
2022-10-11T03:58:03.749Z,64.28
2022-10-11T04:00:30.097Z,64.32
2022-10-11T04:02:56.438Z,64.03
2022-10-11T04:05:22.879Z,64.48
2022-10-11T04:07:49.337Z,64.40
2022-10-11T04:10:15.749Z,64.95
2022-10-11T04:12:42.106Z,65.00
2022-10-11T04:15:08.887Z,65.23
2022-10-11T04:17:35.237Z,63.56
2022-10-11T04:20:01.641Z,64.14
2022-10-11T04:22:27.960Z,64.50
2022-10-11T04:24:54.380Z,64.32
2022-10-11T04:27:20.746Z,65.03
2022-10-11T04:29:47.116Z,65.24
2022-10-11T04:32:13.426Z,65.12
2022-10-11T04:34:39.726Z,64.79
2022-10-11T04:37:06.099Z,64.76
2022-10-11T04:39:32.415Z,65.10
2022-10-11T04:41:58.745Z,65.66
2022-10-11T04:44:25.150Z,64.54
2022-10-11T04:46:51.534Z,64.61
2022-10-11T04:49:17.944Z,64.52
2022-10-11T04:51:44.301Z,65.70
2022-10-11T04:54:10.630Z,66.21
2022-10-11T04:56:36.968Z,65.84
2022-10-11T04:59:03.536Z,66.58
2022-10-11T05:01:29.997Z,65.04
2022-10-11T05:03:56.507Z,64.35
2022-10-11T05:06:22.879Z,64.56
2022-10-11T05:08:49.237Z,64.10
2022-10-11T05:11:16.898Z,64.65
2022-10-11T05:13:44.517Z,65.05
2022-10-11T05:16:12.480Z,65.54
2022-10-11T05:18:39.664Z,65.14
2022-10-11T05:21:14.314Z,64.73
2022-10-11T05:23:40.894Z,63.88
2022-10-11T05:26:07.981Z,63.38
2022-10-11T05:28:34.615Z,64.04
2022-10-11T05:31:00.978Z,64.33
2022-10-11T05:33:27.579Z,65.31
2022-10-11T05:35:54.220Z,65.35
2022-10-11T05:38:20.587Z,65.02
2022-10-11T05:40:47.038Z,65.67
2022-10-11T05:43:13.501Z,65.89
2022-10-11T05:45:41.536Z,65.54
2022-10-11T05:48:08.567Z,64.57
2022-10-11T05:50:35.593Z,64.56
2022-10-11T05:53:03.060Z,64.70
2022-10-11T05:55:29.437Z,65.65
2022-10-11T05:57:57.423Z,66.72
2022-10-11T06:00:24.776Z,67.08
2022-10-11T06:02:51.143Z,67.88
2022-10-11T06:05:18.151Z,68.25
2022-10-11T06:07:44.704Z,67.77
2022-10-11T06:10:12.117Z,68.07
2022-10-11T06:12:38.813Z,67.75
2022-10-11T06:15:06.330Z,67.56
2022-10-11T06:17:32.688Z,67.60
2022-10-11T06:19:59.123Z,67.46
2022-10-11T06:22:26.624Z,67.16
2022-10-11T06:24:53.070Z,67.08
2022-10-11T06:27:19.406Z,67.49
2022-10-11T06:29:45.840Z,67.82
2022-10-11T06:32:13.333Z,67.45
2022-10-11T06:34:39.913Z,67.10
2022-10-11T06:37:06.621Z,66.84
2022-10-11T06:39:33.248Z,67.00
2022-10-11T06:41:59.595Z,67.69
2022-10-11T06:44:26.733Z,67.12
2022-10-11T06:46:53.093Z,67.86
2022-10-11T06:49:23.243Z,68.06
2022-10-11T06:51:50.566Z,68.03
2022-10-11T06:54:16.908Z,67.27
2022-10-11T06:56:45.487Z,67.45
2022-10-11T06:59:13.342Z,67.50
2022-10-11T07:01:39.778Z,68.10
2022-10-11T07:04:06.288Z,68.58
2022-10-11T07:06:37.457Z,68.95
2022-10-11T07:09:04.912Z,69.53
2022-10-11T07:11:31.566Z,69.55
2022-10-11T07:14:10.220Z,68.88
2022-10-11T07:16:37.281Z,69.09
2022-10-11T07:19:07.912Z,69.10
2022-10-11T07:29:27.559Z,70.17
2022-10-11T07:32:09.106Z,70.37
2022-10-11T07:34:59.685Z,70.33
2022-10-11T07:37:26.079Z,70.23
2022-10-11T07:39:52.523Z,70.04
2022-10-11T07:42:19.106Z,69.89
2022-10-11T07:44:45.712Z,69.76
2022-10-11T07:47:12.178Z,70.25
2022-10-11T07:49:38.619Z,70.48
2022-10-11T07:52:08.221Z,70.67
2022-10-11T07:54:34.693Z,71.02
2022-10-11T07:57:01.872Z,71.62
2022-10-11T07:59:28.663Z,72.01
2022-10-11T08:01:55.450Z,72.16
2022-10-11T08:04:21.983Z,72.19
2022-10-11T08:06:56.891Z,72.44
2022-10-11T08:09:25.372Z,72.87
2022-10-11T08:11:53.573Z,72.87
2022-10-11T08:14:23.601Z,72.51
2022-10-11T08:16:51.188Z,72.79
2022-10-11T08:19:21.402Z,72.74
2022-10-11T08:21:48.007Z,72.94
2022-10-11T08:24:21.054Z,73.02
2022-10-11T08:26:48.107Z,72.84
2022-10-11T08:29:14.721Z,72.33
2022-10-11T08:31:42.200Z,72.43
2022-10-11T08:34:08.757Z,72.34
2022-10-11T08:36:35.172Z,71.75
2022-10-11T08:39:03.131Z,71.65
2022-10-11T08:41:37.971Z,71.75
2022-10-11T08:44:23.172Z,71.26
2022-10-11T08:47:00.412Z,70.85
2022-10-11T08:49:30.344Z,70.90
2022-10-11T08:52:02.582Z,70.32
2022-10-11T08:54:44.722Z,70.27
2022-10-11T08:57:21.550Z,70.46
2022-10-11T09:00:00.759Z,70.43
2022-10-11T09:10:58.467Z,70.54
2022-10-11T09:13:59.771Z,70.62
2022-10-11T09:16:39.481Z,70.52
2022-10-11T09:20:01.501Z,69.99
2022-10-11T09:22:50.625Z,69.31
2022-10-11T09:25:44.412Z,69.30
2022-10-11T09:28:11.888Z,68.76
2022-10-11T09:30:45.738Z,68.52
2022-10-11T09:33:18.953Z,67.71
2022-10-11T09:35:52.408Z,67.26
2022-10-11T09:38:26.987Z,68.17
2022-10-11T09:41:19.497Z,68.29
2022-10-11T09:43:49.498Z,67.20
2022-10-11T09:46:32.380Z,65.99
2022-10-11T09:49:02.792Z,65.62
2022-10-11T09:51:30.179Z,65.61
2022-10-11T09:54:02.927Z,64.63
2022-10-11T09:56:31.755Z,63.76
2022-10-11T09:59:12.335Z,64.50
2022-10-11T10:01:38.795Z,64.86
2022-10-11T10:04:11.908Z,64.26
2022-10-11T10:06:39.276Z,62.83
2022-10-11T10:09:30.059Z,61.59
2022-10-11T10:11:57.289Z,61.13
2022-10-11T10:14:32.815Z,60.59
2022-10-11T10:17:19.928Z,59.39
2022-10-11T10:19:51.720Z,57.40
2022-10-11T10:22:26.941Z,54.06
2022-10-11T10:24:58.617Z,44.77
2022-10-11T10:27:27.785Z,39.77
2022-10-11T10:30:09.500Z,36.67
2022-10-11T10:33:10.900Z,35.24
2022-10-11T10:35:52.584Z,35.62
2022-10-11T10:38:34.369Z,35.84
2022-10-11T10:41:15.767Z,37.82
2022-10-11T10:43:45.546Z,39.71
2022-10-11T10:46:18.028Z,41.07
2022-10-11T10:49:28.765Z,41.51
2022-10-11T10:52:07.926Z,43.99
2022-10-11T10:55:01.129Z,46.10
2022-10-11T10:57:33.679Z,47.17
2022-10-11T11:00:29.469Z,48.58
2022-10-11T11:03:03.439Z,49.22
2022-10-11T11:05:48.258Z,48.45
2022-10-11T11:08:47.255Z,47.54
2022-10-11T11:11:38.323Z,47.48
2022-10-11T11:14:46.215Z,47.01
2022-10-11T11:17:34.719Z,48.89
2022-10-11T11:20:22.683Z,49.46
2022-10-11T11:23:11.746Z,48.67
2022-10-11T11:26:00.478Z,49.32
2022-10-11T11:28:49.882Z,46.89
2022-10-11T11:31:22.501Z,47.53
2022-10-11T11:34:05.720Z,47.56
2022-10-11T11:36:35.091Z,46.66
2022-10-11T11:39:04.407Z,46.34
2022-10-11T11:41:37.984Z,46.39
2022-10-11T11:44:29.565Z,45.63
2022-10-11T11:46:59.281Z,44.82
2022-10-11T11:49:34.185Z,45.05
2022-10-11T11:52:11.811Z,45.47
2022-10-11T11:54:53.475Z,45.19
2022-10-11T11:57:36.589Z,45.31
2022-10-11T12:00:14.588Z,45.14
2022-10-11T12:02:52.307Z,44.76
2022-10-11T12:05:25.639Z,45.58
2022-10-11T12:07:54.957Z,44.98
2022-10-11T12:10:37.137Z,45.82
2022-10-11T12:13:06.774Z,46.18
2022-10-11T12:15:33.492Z,44.64
2022-10-11T12:18:07.788Z,45.48
2022-10-11T12:20:41.240Z,46.04
2022-10-11T12:23:29.087Z,46.40
2022-10-11T12:26:17.251Z,45.56
2022-10-11T12:28:43.746Z,46.24
2022-10-11T12:31:34.296Z,46.35
2022-10-11T12:34:00.955Z,44.77
2022-10-11T12:36:38.361Z,44.19
2022-10-11T12:39:20.158Z,43.81
2022-10-11T12:41:55.697Z,41.07
2022-10-11T12:44:27.222Z,40.50
2022-10-11T12:46:53.692Z,42.04
2022-10-11T12:49:41.922Z,41.54
2022-10-11T12:52:17.566Z,41.48
2022-10-11T12:55:22.494Z,42.80
2022-10-11T12:58:25.675Z,42.64
2022-10-11T13:00:58.422Z,42.75
2022-10-11T13:03:36.353Z,43.97
2022-10-11T13:06:14.732Z,44.26
2022-10-11T13:08:47.841Z,43.78
2022-10-11T13:11:21.589Z,44.19
2022-10-11T13:13:56.760Z,44.83
2022-10-11T13:16:41.701Z,45.44
2022-10-11T13:19:13.354Z,45.63
2022-10-11T13:21:39.918Z,46.92
2022-10-11T13:24:16.034Z,46.07
2022-10-11T13:29:33.829Z,46.83
2022-10-11T13:32:08.462Z,46.45
2022-10-11T13:34:39.221Z,46.27
2022-10-11T13:37:06.618Z,46.25
2022-10-11T13:39:38.121Z,46.56
2022-10-11T13:42:14.465Z,45.96
2022-10-11T13:44:42.328Z,45.45
2022-10-11T13:47:17.663Z,45.19
2022-10-11T13:49:46.725Z,43.12
2022-10-11T13:52:21.704Z,42.17
2022-10-11T13:55:00.740Z,41.89
2022-10-11T13:57:37.724Z,41.18
2022-10-11T14:00:17.113Z,41.09
2022-10-11T14:10:23.009Z,39.95
2022-10-11T14:13:24.171Z,40.38
2022-10-11T14:16:20.598Z,40.57
2022-10-11T14:18:51.165Z,40.29
2022-10-11T14:21:20.621Z,40.68
2022-10-11T14:23:53.648Z,40.77
2022-10-11T14:26:21.923Z,40.90
2022-10-11T14:28:58.604Z,41.43
2022-10-11T14:31:25.899Z,41.38
2022-10-11T14:34:01.402Z,39.34
2022-10-11T14:36:46.323Z,41.00
2022-10-11T14:39:27.297Z,41.72
2022-10-11T14:41:54.189Z,41.74
2022-10-11T14:44:49.602Z,41.11
2022-10-11T14:47:43.109Z,41.01
2022-10-11T14:50:23.041Z,40.85
2022-10-11T14:52:49.682Z,41.44
2022-10-11T14:55:17.241Z,41.97
2022-10-11T14:57:43.829Z,42.39
2022-10-11T15:00:20.336Z,42.86
2022-10-11T15:02:52.911Z,41.14
2022-10-11T15:05:21.196Z,41.52
2022-10-11T15:10:44.185Z,41.88
2022-10-11T15:13:10.628Z,42.28
2022-10-11T15:15:42.165Z,42.55
2022-10-11T15:18:12.933Z,42.27
2022-10-11T15:20:43.042Z,41.63
2022-10-11T15:23:09.990Z,42.05
2022-10-11T15:25:38.375Z,42.61
2022-10-11T15:28:05.581Z,43.09
2022-10-11T15:30:40.058Z,43.41
2022-10-11T15:33:48.925Z,42.58
2022-10-11T15:36:22.677Z,43.15
2022-10-11T15:38:49.765Z,42.79
2022-10-11T15:41:19.244Z,43.13
2022-10-11T15:43:47.521Z,43.62
2022-10-11T15:46:21.034Z,43.61
2022-10-11T15:48:49.136Z,43.36
2022-10-11T15:51:22.294Z,43.33
2022-10-11T15:54:46.071Z,43.50
2022-10-11T15:57:12.761Z,43.85
2022-10-11T16:00:32.129Z,44.28
2022-10-11T16:02:59.088Z,43.87
2022-10-11T16:05:27.586Z,44.67
2022-10-11T16:07:54.866Z,45.18
2022-10-11T16:10:21.793Z,45.02
2022-10-11T16:12:48.863Z,46.36
2022-10-11T16:15:18.714Z,47.62
2022-10-11T16:17:46.400Z,48.15
2022-10-11T16:20:16.173Z,47.49
2022-10-11T16:22:44.969Z,48.37
2022-10-11T16:25:16.662Z,48.63
2022-10-11T16:27:44.085Z,49.59
2022-10-11T16:30:12.836Z,49.92
2022-10-11T16:32:39.902Z,50.62
2022-10-11T16:35:09.500Z,51.21
2022-10-11T16:37:36.461Z,51.29
2022-10-11T16:40:04.276Z,51.85
2022-10-11T16:42:30.871Z,51.85
2022-10-11T16:44:57.268Z,52.32
2022-10-11T16:47:26.979Z,52.49
2022-10-11T16:49:56.976Z,52.61
2022-10-11T16:52:26.290Z,53.06
2022-10-11T16:54:53.868Z,53.07
2022-10-11T16:57:20.304Z,53.88
2022-10-11T16:59:47.132Z,54.65
2022-10-11T17:02:23.703Z,54.01
2022-10-11T17:04:51.551Z,54.34
2022-10-11T17:07:19.508Z,54.33
2022-10-11T17:09:46.499Z,54.14
2022-10-11T17:12:15.337Z,54.99
2022-10-11T17:14:42.722Z,54.34
2022-10-11T17:17:10.782Z,54.25
2022-10-11T17:19:44.870Z,54.76
2022-10-11T17:22:15.636Z,56.05
2022-10-11T17:24:42.531Z,55.53
2022-10-11T17:27:10.502Z,55.97
2022-10-11T17:29:37.435Z,55.64
2022-10-11T17:32:04.528Z,55.42
2022-10-11T17:34:31.090Z,55.41
2022-10-11T17:36:57.485Z,55.59
2022-10-11T17:39:25.657Z,55.24
2022-10-11T17:41:53.942Z,55.43
2022-10-11T17:44:21.539Z,55.68
2022-10-11T17:46:48.291Z,55.90
2022-10-11T17:49:14.921Z,55.74
2022-10-11T17:51:41.933Z,56.12
2022-10-11T18:05:39.559Z,55.60
2022-10-11T18:26:45.495Z,56.83
2022-10-11T18:29:12.602Z,57.17
2022-10-11T18:31:40.337Z,57.19
2022-10-11T18:34:10.516Z,57.52
2022-10-11T18:36:37.428Z,57.77
2022-10-11T18:39:06.774Z,57.76
2022-10-11T18:41:33.858Z,58.12
2022-10-11T18:44:03.074Z,57.74
2022-10-11T18:46:30.164Z,57.69
2022-10-11T18:48:58.309Z,57.63
2022-10-11T18:51:27.353Z,58.35
2022-10-11T18:53:54.425Z,56.65
2022-10-11T18:56:23.820Z,56.66
2022-10-11T18:58:52.012Z,56.84
2022-10-11T19:01:21.275Z,56.89
2022-10-11T19:03:55.293Z,57.09
2022-10-11T19:06:31.923Z,57.60
2022-10-11T19:09:13.610Z,57.68
2022-10-11T19:11:40.983Z,57.48
2022-10-11T19:14:11.395Z,57.59
2022-10-11T19:16:41.036Z,57.84
2022-10-11T19:19:09.404Z,58.47
2022-10-11T19:21:36.122Z,59.10
2022-10-11T19:24:02.640Z,58.81
2022-10-11T19:26:34.502Z,57.92
2022-10-11T19:29:04.264Z,57.91
2022-10-11T19:31:31.754Z,57.38
2022-10-11T19:33:59.366Z,57.11
2022-10-11T19:36:26.278Z,57.46
2022-10-11T19:38:56.722Z,58.28
2022-10-11T19:41:26.130Z,58.73
2022-10-11T19:43:53.662Z,58.86
2022-10-11T19:49:09.252Z,58.95
2022-10-11T19:51:37.401Z,58.41
2022-10-11T19:54:09.071Z,58.92
2022-10-11T19:56:35.881Z,59.03
2022-10-11T19:59:02.575Z,58.73
2022-10-11T20:01:31.067Z,58.43
2022-10-11T20:04:00.369Z,58.89
2022-10-11T20:06:28.257Z,58.72
2022-10-11T20:09:10.594Z,58.23
2022-10-11T20:11:41.884Z,57.85
2022-10-11T20:14:08.944Z,58.35
2022-10-11T20:16:35.330Z,57.78
2022-10-11T20:19:02.051Z,58.41
2022-10-11T20:21:30.093Z,58.81
2022-10-11T20:23:59.985Z,58.20
2022-10-11T20:26:27.546Z,59.41
2022-10-11T20:28:56.159Z,59.58
2022-10-11T20:31:29.482Z,59.41
2022-10-11T20:34:02.144Z,59.30
2022-10-11T20:37:07.525Z,59.21
2022-10-11T20:39:36.196Z,60.41
2022-10-11T20:42:02.595Z,59.63
2022-10-11T20:44:29.000Z,59.30
2022-10-11T20:46:55.485Z,59.48
2022-10-11T20:49:24.402Z,59.78
2022-10-11T20:51:50.838Z,59.75
2022-10-11T20:54:17.250Z,59.52
2022-10-11T20:56:43.664Z,60.07
2022-10-11T20:59:10.294Z,58.33
2022-10-11T21:01:40.771Z,59.01
2022-10-11T21:04:10.111Z,60.31
2022-10-11T21:06:37.783Z,59.06
2022-10-11T21:09:04.335Z,58.35
2022-10-11T21:11:33.452Z,59.04
2022-10-11T21:14:02.079Z,59.06
2022-10-11T21:16:28.728Z,58.54
2022-10-11T21:18:56.936Z,58.75
2022-10-11T21:21:24.539Z,58.66
2022-10-11T21:24:00.943Z,58.63
2022-10-11T21:26:28.867Z,58.35
2022-10-11T21:28:55.299Z,58.99
2022-10-11T21:31:23.306Z,59.35
2022-10-11T21:33:51.875Z,60.73
2022-10-11T21:36:20.547Z,61.17
2022-10-11T21:38:48.137Z,60.98
2022-10-11T21:41:17.062Z,61.62
2022-10-11T21:43:43.638Z,62.47
2022-10-11T21:46:21.712Z,62.73
2022-10-11T21:48:49.989Z,62.46
2022-10-11T21:51:21.703Z,61.62
2022-10-11T21:53:48.179Z,60.91
2022-10-11T21:56:14.606Z,60.33
2022-10-11T21:58:41.056Z,60.21
2022-10-11T22:01:07.514Z,60.27
2022-10-11T22:03:34.149Z,59.71
2022-10-11T22:06:04.490Z,59.98
2022-10-11T22:08:31.235Z,59.69
2022-10-11T22:10:59.619Z,59.09
2022-10-11T22:13:28.691Z,59.47
2022-10-11T22:15:57.940Z,59.05
2022-10-11T22:18:24.858Z,59.93
2022-10-11T22:20:51.394Z,60.09
2022-10-11T22:23:18.944Z,60.66
2022-10-11T22:25:46.002Z,60.62
2022-10-11T22:28:12.759Z,59.94
2022-10-11T22:30:39.106Z,59.83
2022-10-11T22:33:05.543Z,60.45
2022-10-11T22:35:37.233Z,61.18
2022-10-11T22:38:06.183Z,61.11
2022-10-11T22:40:32.839Z,61.17
2022-10-11T22:42:59.303Z,61.36
2022-10-11T22:45:25.876Z,62.29
2022-10-11T22:47:52.410Z,61.08
2022-10-11T22:50:18.721Z,60.24
2022-10-11T22:52:45.116Z,60.25
2022-10-11T22:55:14.139Z,59.98
2022-10-11T22:57:42.810Z,59.90
2022-10-11T23:00:09.694Z,60.44
2022-10-11T23:02:36.124Z,60.43
2022-10-11T23:05:02.780Z,60.69
2022-10-11T23:07:29.115Z,60.48
2022-10-11T23:09:55.468Z,59.61
2022-10-11T23:12:21.893Z,59.93
2022-10-11T23:14:48.208Z,59.00
2022-10-11T23:17:14.712Z,60.60
2022-10-11T23:19:41.087Z,60.87
2022-10-11T23:22:07.472Z,60.59
2022-10-11T23:24:34.047Z,60.97
2022-10-11T23:27:00.479Z,60.64
2022-10-11T23:29:29.856Z,60.92
2022-10-11T23:31:56.295Z,61.43
2022-10-11T23:34:22.707Z,60.79
2022-10-11T23:36:49.180Z,60.01
2022-10-11T23:39:15.999Z,60.69
2022-10-11T23:41:43.711Z,61.64
2022-10-11T23:44:10.543Z,61.51
2022-10-11T23:46:36.918Z,61.51
2022-10-11T23:49:03.767Z,61.96
2022-10-11T23:51:30.164Z,61.15
2022-10-11T23:53:56.545Z,61.70
2022-10-11T23:56:22.962Z,60.84
2022-10-11T23:58:49.394Z,60.61
